Time;durP1;ratioP1;P1;durP2;ratioP2;P2;SDS_P1;SDS_P2;PMS_P1;PMS_P2;Temp;Humidity;BMP_temperature;BMP_pressure;BME280_temperature;BME280_humidity;BME280_pressure;Samples;Min_cycle;Max_cycle;Signal;HPM_P1;HPM_P2
2023/01/17 00:00:09;;;;;;;3.65;0.57;;;;;;;-142.75;100.00;75847.94;5000210;28;20028;-67
2023/01/17 00:02:35;;;;;;;;;;;;;;;-142.75;100.00;75847.94;5000738;28;20026;-67
2023/01/17 00:10:28;;;;;;;5.10;0.50;;;;;;;-142.75;100.00;75838.09;5000516;28;20052;-66
2023/01/17 00:12:57;;;;;;;1.27;0.38;;;;;;;-142.75;100.00;75814.47;5000497;28;20395;-66
2023/01/17 00:15:23;;;;;;;4.70;0.97;;;;;;;-142.75;100.00;75828.25;4999962;28;20029;-65
2023/01/17 00:17:50;;;;;;;4.53;0.50;;;;;;;-142.75;100.00;75818.41;4999574;28;20159;-64
2023/01/17 00:26:15;;;;;;;9.50;1.17;;;;;;;-142.75;100.00;75814.47;4999749;28;20104;-67
2023/01/17 01:35:53;;;;;;;3.43;0.37;;;;;;;-142.75;100.00;76001.44;5018728;28;20068;-65
2023/01/17 01:38:21;;;;;;;3.23;0.33;;;;;;;-142.75;100.00;75967.97;5000262;28;20076;-66
2023/01/17 01:40:49;;;;;;;1.10;0.30;;;;;;;-142.75;100.00;75971.91;5018839;28;20127;-62
2023/01/17 01:43:17;;;;;;;4.90;0.57;;;;;;;-142.75;100.00;75964.03;5021967;28;20935;-65
2023/01/17 01:45:56;;;;;;;7.00;0.60;;;;;;;-142.75;100.00;75985.69;5004989;28;20585;-65
2023/01/17 01:48:33;;;;;;;1.93;0.43;;;;;;;-142.75;100.00;75967.97;5021489;28;20025;-63
2023/01/17 01:51:03;;;;;;;3.30;0.37;;;;;;;-142.75;100.00;75969.94;5022150;28;20380;-65
2023/01/17 01:53:34;;;;;;;2.47;0.53;;;;;;;-142.75;100.00;75973.88;5021682;28;20438;-67
2023/01/17 01:55:59;;;;;;;2.47;0.30;;;;;;;-142.75;100.00;75971.91;5022199;28;20088;-65
2023/01/17 01:58:27;;;;;;;2.72;0.50;;;;;;;-142.75;100.00;75971.91;5021512;28;20445;-65
2023/01/17 02:00:52;;;;;;;2.87;0.30;;;;;;;-142.75;100.00;75981.75;5004859;28;20131;-65
2023/01/17 02:03:39;;;;;;;12.55;0.70;;;;;;;-142.75;100.00;75952.25;5040473;28;20032;-66
2023/01/17 02:06:31;;;;;;;9.90;0.60;;;;;;;-142.75;100.00;75942.41;5041904;28;20029;-65
2023/01/17 02:09:00;;;;;;;3.33;0.60;;;;;;;-142.75;100.00;75958.16;5031854;28;20079;-64
2023/01/17 02:11:26;;;;;;;4.43;0.57;;;;;;;-142.75;100.00;75962.09;5041563;28;20108;-66
2023/01/17 02:13:51;;;;;;;2.47;0.40;;;;;;;-142.75;100.00;75975.84;5042268;28;20035;-65
2023/01/17 02:16:22;;;;;;;4.82;0.63;;;;;;;-142.75;100.00;75967.97;5023090;28;20056;-65
2023/01/17 02:19:11;;;;;;;3.07;0.50;;;;;;;-142.75;100.00;75975.84;5021383;28;20770;-65
2023/01/17 02:21:59;;;;;;;1.70;0.43;;;;;;;-142.75;100.00;75975.84;5003980;28;20120;-65
2023/01/17 02:24:27;;;;;;;1.40;0.17;;;;;;;-142.75;100.00;76015.22;5020614;28;20458;-67
2023/01/17 02:27:17;;;;;;;1.10;0.43;;;;;;;-142.75;100.00;76007.34;5021535;28;20354;-65
2023/01/17 02:29:51;;;;;;;1.40;0.37;;;;;;;-142.75;100.00;76009.31;5021863;28;20030;-66
2023/01/17 02:32:46;;;;;;;2.37;0.50;;;;;;;-142.75;100.00;76001.44;5021881;28;20033;-65
2023/01/17 02:35:24;;;;;;;0.87;0.50;;;;;;;-142.75;100.00;76007.34;5021451;28;20029;-65
2023/01/17 02:37:55;;;;;;;5.43;0.60;;;;;;;-142.75;100.00;76019.16;5021274;28;20143;-65
2023/01/17 02:40:36;;;;;;;1.80;0.50;;;;;;;-142.75;100.00;76005.38;5003185;28;20033;-64
2023/01/17 02:43:07;;;;;;;4.90;0.40;;;;;;;-142.75;100.00;76003.41;5003856;28;20033;-65
2023/01/17 02:45:33;;;;;;;2.50;0.50;;;;;;;-142.75;100.00;76019.16;5020820;28;20044;-65
2023/01/17 02:47:58;;;;;;;2.30;0.57;;;;;;;-142.75;100.00;76015.22;5020362;28;20033;-65
2023/01/17 02:50:31;;;;;;;1.35;0.73;;;;;;;-142.75;100.00;76017.19;5021260;28;20133;-65
2023/01/17 02:53:16;;;;;;;1.20;0.33;;;;;;;-142.75;100.00;76021.13;5020612;28;20035;-63
2023/01/17 02:55:59;;;;;;;2.57;0.57;;;;;;;-142.75;100.00;76027.03;5021251;28;20025;-64
2023/01/17 02:58:42;;;;;;;1.50;0.33;;;;;;;-142.75;100.00;76038.84;5020638;28;20677;-65
2023/01/17 03:01:25;;;;;;;3.60;0.43;;;;;;;-142.75;100.00;76044.75;5003527;28;20039;-66
2023/01/17 03:04:17;;;;;;;3.57;0.90;;;;;;;-142.75;100.00;76056.56;5021283;28;20032;-67
2023/01/17 03:06:57;;;;;;;3.87;0.50;;;;;;;-142.75;100.00;76060.50;5020139;28;20138;-66
2023/01/17 03:09:24;;;;;;;6.23;0.57;;;;;;;-142.75;100.00;76046.72;5020702;28;20044;-66
2023/01/17 03:11:50;;;;;;;3.67;0.87;;;;;;;-142.75;100.00;76042.78;5021086;28;20463;-66
2023/01/17 03:14:15;;;;;;;5.07;0.45;;;;;;;-142.75;100.00;76042.78;5020743;28;20040;-65
2023/01/17 03:16:41;;;;;;;1.52;0.40;;;;;;;-142.75;100.00;76046.72;5002367;28;20794;-64
2023/01/17 03:19:08;;;;;;;0.93;0.43;;;;;;;-142.75;100.00;76036.88;5020563;28;20890;-67
2023/01/17 03:21:34;;;;;;;6.03;0.40;;;;;;;-142.75;100.00;76029.00;5020421;28;20443;-67
2023/01/17 03:23:59;;;;;;;1.17;0.30;;;;;;;-142.75;100.00;76032.94;5020615;28;20040;-64
2023/01/17 03:26:24;;;;;;;4.43;0.73;;;;;;;-142.75;100.00;76046.72;5020509;28;20014;-63
2023/01/17 03:28:50;;;;;;;6.30;0.52;;;;;;;-142.75;100.00;76040.81;5020499;28;20103;-66
2023/01/17 03:31:16;;;;;;;0.85;0.32;;;;;;;-142.75;100.00;76050.66;5020344;28;20035;-65
2023/01/17 03:33:41;;;;;;;;;;;;;;;-142.75;100.00;76046.72;5020881;28;20030;-65
2023/01/17 03:36:07;;;;;;;2.27;0.60;;;;;;;-142.75;100.00;76058.53;5002433;28;19913;-65
2023/01/17 03:38:32;;;;;;;1.98;0.50;;;;;;;-142.75;100.00;76062.47;5019838;28;20495;-64
2023/01/17 03:40:57;;;;;;;5.43;0.75;;;;;;;-142.75;100.00;76060.50;5002811;28;20025;-64
2023/01/17 03:43:23;;;;;;;3.67;0.55;;;;;;;-142.75;100.00;76060.50;5020401;28;20032;-65
2023/01/17 03:45:50;;;;;;;4.15;0.88;;;;;;;-142.75;100.00;76070.34;5002982;28;20040;-65
2023/01/17 03:48:16;;;;;;;1.50;0.67;;;;;;;-142.75;100.00;76072.31;5019206;28;20859;-66
2023/01/17 03:50:42;;;;;;;3.92;1.20;;;;;;;-142.75;100.00;76084.09;5020262;28;20033;-66
2023/01/17 03:53:07;;;;;;;3.35;0.43;;;;;;;-142.75;100.00;76072.31;5002348;28;20017;-65
2023/01/17 03:55:32;;;;;;;5.88;0.63;;;;;;;-142.75;100.00;76066.41;5020100;28;20836;-65
2023/01/17 03:57:58;;;;;;;4.03;0.73;;;;;;;-142.75;100.00;76064.44;5001400;28;20029;-65
2023/01/17 04:00:23;;;;;;;2.75;0.60;;;;;;;-142.75;100.00;76064.44;5019918;28;20116;-67
2023/01/17 04:02:48;;;;;;;2.42;0.65;;;;;;;-142.75;100.00;76074.25;5020055;28;20601;-65
2023/01/17 04:05:14;;;;;;;3.47;0.60;;;;;;;-142.75;100.00;76086.06;5019058;28;20064;-64
2023/01/17 04:07:40;;;;;;;7.75;1.15;;;;;;;-142.75;100.00;76074.25;5019043;28;20021;-65
2023/01/17 04:10:06;;;;;;;3.58;0.73;;;;;;;-142.75;100.00;76090.00;5019320;28;20021;-66
2023/01/17 04:12:31;;;;;;;3.55;0.77;;;;;;;-142.75;100.00;76095.91;5033631;28;20041;-65
2023/01/17 04:14:56;;;;;;;3.50;0.70;;;;;;;-142.75;100.00;76095.91;5021498;28;20550;-63
2023/01/17 04:17:22;;;;;;;7.38;1.17;;;;;;;-142.75;100.00;76109.69;5020706;28;20036;-64
2023/01/17 04:19:47;;;;;;;8.23;0.77;;;;;;;-142.75;100.00;76101.81;5039396;28;20475;-63
2023/01/17 04:22:13;;;;;;;2.13;0.70;;;;;;;-142.75;100.00;76113.63;5039541;28;20029;-64
2023/01/17 04:24:38;;;;;;;3.30;0.60;;;;;;;-142.75;100.00;76113.63;5039354;28;20108;-65
2023/01/17 04:27:04;;;;;;;6.65;0.77;;;;;;;-142.75;100.00;76101.81;5038599;28;20066;-65
2023/01/17 04:29:29;;;;;;;2.22;0.60;;;;;;;-142.75;100.00;76109.69;5021343;28;20017;-67
2023/01/17 04:31:55;;;;;;;1.98;0.85;;;;;;;-142.75;100.00;76109.69;5039744;28;20424;-64
2023/01/17 04:34:20;;;;;;;4.65;0.95;;;;;;;-142.75;100.00;76095.91;5039237;28;20032;-63
2023/01/17 04:36:46;;;;;;;3.40;0.88;;;;;;;-142.75;100.00;76101.81;5038912;28;20033;-66
2023/01/17 04:39:11;;;;;;;5.63;0.75;;;;;;;-142.75;100.00;76101.81;5028507;28;20021;-64
2023/01/17 04:41:37;;;;;;;3.67;0.65;;;;;;;-142.75;100.00;76095.91;5001600;28;20032;-65
2023/01/17 04:44:03;;;;;;;6.10;0.68;;;;;;;-142.75;100.00;76117.56;5019116;28;20033;-67
2023/01/17 04:46:28;;;;;;;2.58;0.70;;;;;;;-142.75;100.00;76125.44;5019073;28;20237;-66
2023/01/17 04:48:54;;;;;;;4.50;0.57;;;;;;;-142.75;100.00;76135.28;5019088;28;20128;-65
2023/01/17 04:51:19;;;;;;;8.25;1.17;;;;;;;-142.75;100.00;76137.25;5019053;28;20022;-66
2023/01/17 04:53:45;;;;;;;3.03;0.70;;;;;;;-142.75;100.00;76160.88;5019316;28;20021;-65
2023/01/17 04:56:10;;;;;;;;;;;;;;;-142.75;100.00;76137.25;5019207;28;20586;-63
2023/01/17 04:58:35;;;;;;;4.43;0.50;;;;;;;-142.75;100.00;76145.13;5018641;28;20023;-66
2023/01/17 05:01:06;;;;;;;1.33;0.45;;;;;;;-142.75;100.00;76131.34;5019045;28;20037;-65
2023/01/17 05:03:33;;;;;;;3.40;0.50;;;;;;;-142.75;100.00;76141.19;5001538;28;20399;-65
2023/01/17 05:05:59;;;;;;;1.70;0.53;;;;;;;-142.75;100.00;76145.13;5019113;28;20049;-65
2023/01/17 05:08:24;;;;;;;5.53;1.00;;;;;;;-142.75;100.00;76145.13;5000806;28;20040;-66
2023/01/17 05:10:50;;;;;;;2.47;0.60;;;;;;;-142.75;100.00;76143.16;5019432;28;20029;-65
2023/01/17 05:13:16;;;;;;;9.23;0.80;;;;;;;-142.75;100.00;76141.19;5019142;28;20773;-65
2023/01/17 05:15:41;;;;;;;;;;;;;;;-142.75;100.00;76129.38;5019407;28;20025;-65
2023/01/17 05:18:14;;;;;;;11.33;1.00;;;;;;;-142.75;100.00;76145.13;5003824;28;20734;-66
2023/01/17 05:20:40;;;;;;;4.73;0.67;;;;;;;-142.75;100.00;76151.03;5022994;28;20118;-66
2023/01/17 05:23:05;;;;;;;4.38;0.93;;;;;;;-142.75;100.00;76151.03;5022815;28;20136;-65
2023/01/17 05:25:31;;;;;;;6.85;1.02;;;;;;;-142.75;100.00;76149.06;5005212;28;20122;-62
2023/01/17 05:27:58;;;;;;;;;;;;;;;-142.75;100.00;76160.88;5021371;28;20140;-63
2023/01/17 05:30:24;;;;;;;;;;;;;;;-142.75;100.00;76143.16;5042584;28;20031;-65
2023/01/17 05:32:51;;;;;;;4.33;0.83;;;;;;;-142.75;100.00;76156.94;5025175;28;19919;-67
2023/01/17 05:35:19;;;;;;;4.73;0.70;;;;;;;-142.75;100.00;76158.91;5042264;28;20065;-66
2023/01/17 05:37:48;;;;;;;3.37;0.43;;;;;;;-142.75;100.00;76168.75;5023933;28;20574;-65
2023/01/17 05:40:15;;;;;;;13.17;1.00;;;;;;;-142.75;100.00;76172.69;5042340;28;20102;-64
2023/01/17 05:42:52;;;;;;;5.27;0.67;;;;;;;-142.75;100.00;76182.53;5024809;28;20036;-63
2023/01/17 05:45:18;;;;;;;;;;;;;;;-142.75;100.00;76174.66;5042822;28;20056;-65
2023/01/17 05:47:45;;;;;;;2.77;0.67;;;;;;;-142.75;100.00;76186.47;5041747;28;20536;-65
2023/01/17 05:50:19;;;;;;;2.43;0.63;;;;;;;-142.75;100.00;76184.50;5024237;28;20060;-66
2023/01/17 05:53:08;;;;;;;3.87;0.80;;;;;;;-142.75;100.00;76192.38;5042145;28;20128;-65
2023/01/17 05:55:34;;;;;;;5.23;0.80;;;;;;;-142.75;100.00;76194.34;5042126;28;20825;-65
2023/01/17 05:58:00;;;;;;;;;;;;;;;-142.75;100.00;76204.16;5042148;28;20672;-65
2023/01/17 06:00:25;;;;;;;2.73;0.80;;;;;;;-142.75;100.00;76206.13;5041944;28;19923;-65
2023/01/17 06:02:55;;;;;;;5.05;0.82;;;;;;;-142.75;100.00;76194.34;5042574;28;20017;-65
2023/01/17 06:05:21;;;;;;;3.40;0.70;;;;;;;-142.75;100.00;76200.25;5041912;28;20087;-62
2023/01/17 06:07:47;;;;;;;;;;;;;;;-142.75;100.00;76204.16;5042020;28;20033;-65
2023/01/17 06:10:14;;;;;;;5.40;0.77;;;;;;;-142.75;100.00;76219.91;5041576;28;19917;-62
2023/01/17 06:12:41;;;;;;;3.17;0.80;;;;;;;-142.75;100.00;76215.97;5023812;28;20021;-64
2023/01/17 06:15:07;;;;;;;4.87;0.90;;;;;;;-142.75;100.00;76225.81;5042111;28;20071;-66
2023/01/17 06:17:33;;;;;;;6.32;0.70;;;;;;;-142.75;100.00;76231.72;5023651;28;20841;-64
2023/01/17 06:19:58;;;;;;;2.05;0.60;;;;;;;-142.75;100.00;76245.50;5023791;28;20020;-64
2023/01/17 06:22:23;;;;;;;3.10;0.75;;;;;;;-142.75;100.00;76237.63;5023694;28;20178;-65
2023/01/17 06:24:49;;;;;;;3.95;0.70;;;;;;;-142.75;100.00;76231.72;5041718;28;20013;-65
2023/01/17 06:27:14;;;;;;;6.55;1.00;;;;;;;-142.75;100.00;76239.59;5040608;28;20825;-65
2023/01/17 06:29:39;;;;;;;1.70;0.65;;;;;;;-142.75;100.00;76235.66;5040384;28;20033;-66
2023/01/17 06:32:05;;;;;;;3.17;0.70;;;;;;;-142.75;100.00;76239.59;5041211;28;20025;-66
2023/01/17 06:34:30;;;;;;;1.30;0.52;;;;;;;-142.75;100.00;76259.28;5041654;28;20078;-68
2023/01/17 06:36:55;;;;;;;4.97;1.05;;;;;;;-142.75;100.00;76243.53;5022696;28;20020;-64
2023/01/17 06:39:21;;;;;;;3.45;1.02;;;;;;;-142.75;100.00;76229.75;5041336;28;20532;-64
2023/01/17 06:41:46;;;;;;;6.82;0.90;;;;;;;-142.75;100.00;76237.63;5041326;28;20035;-66
2023/01/17 06:44:12;;;;;;;1.77;0.63;;;;;;;-142.75;100.00;76231.72;5023620;28;20494;-64
2023/01/17 06:46:37;;;;;;;5.35;1.20;;;;;;;-142.75;100.00;76245.50;5040783;28;20021;-63
2023/01/17 06:49:02;;;;;;;1.98;0.80;;;;;;;-142.75;100.00;76247.47;5034811;28;20066;-65
2023/01/17 06:51:28;;;;;;;1.58;0.75;;;;;;;-142.75;100.00;76261.25;5021645;28;20526;-64
2023/01/17 06:53:53;;;;;;;2.63;0.55;;;;;;;-142.75;100.00;76243.53;5021634;28;20032;-64
2023/01/17 06:56:19;;;;;;;5.05;1.08;;;;;;;-142.75;100.00;76271.09;5021259;28;20455;-66
2023/01/17 06:58:50;;;;;;;3.08;0.68;;;;;;;-142.75;100.00;76263.22;5020268;28;20017;-66
2023/01/17 07:01:17;;;;;;;5.27;1.17;;;;;;;-142.75;100.00;76259.28;5021152;28;20065;-66
2023/01/17 07:03:42;;;;;;;;;;;;;;;-142.75;100.00;76263.22;5021709;28;20475;-67
2023/01/17 07:06:10;;;;;;;3.70;1.30;;;;;;;-142.75;100.00;76261.25;5003304;28;19913;-65
2023/01/17 07:08:36;;;;;;;4.33;1.63;;;;;;;-142.75;100.00;76259.28;5002772;28;20037;-65
2023/01/17 07:11:03;;;;;;;2.33;1.00;;;;;;;-142.75;100.00;76263.22;5004427;28;20033;-65
2023/01/17 07:13:32;;;;;;;2.37;0.90;;;;;;;-142.75;100.00;76269.13;5003285;28;20040;-65
2023/01/17 07:15:59;;;;;;;14.17;4.27;;;;;;;-142.75;100.00;76271.09;5020398;28;20536;-61
2023/01/17 07:18:24;;;;;;;4.47;2.50;;;;;;;-142.75;100.00;76263.22;5020091;28;20104;-65
2023/01/17 07:20:51;;;;;;;6.97;3.35;;;;;;;-142.75;100.00;76269.13;5020807;28;20501;-65
2023/01/17 07:23:21;;;;;;;3.70;1.70;;;;;;;-142.75;100.00;76257.31;5020608;28;20056;-65
2023/01/17 07:25:51;;;;;;;4.17;1.33;;;;;;;-142.75;100.00;76259.28;5021223;28;20790;-65
2023/01/17 07:28:16;;;;;;;2.40;1.33;;;;;;;-142.75;100.00;76280.94;5019668;28;20813;-67
2023/01/17 07:30:41;;;;;;;3.55;1.20;;;;;;;-142.75;100.00;76271.09;5020525;28;20132;-64
2023/01/17 07:33:07;;;;;;;7.80;1.33;;;;;;;-142.75;100.00;76263.22;5020283;28;20565;-65
2023/01/17 07:35:33;;;;;;;2.45;1.20;;;;;;;-142.75;100.00;76271.09;5020333;28;20116;-64
2023/01/17 07:37:58;;;;;;;2.72;1.33;;;;;;;-142.75;100.00;76267.16;5019685;28;20021;-64
2023/01/17 07:40:24;;;;;;;2.10;1.60;;;;;;;-142.75;100.00;76265.19;5040078;28;20498;-64
2023/01/17 07:42:49;;;;;;;6.22;1.15;;;;;;;-142.75;100.00;76267.16;5040667;28;20544;-66
2023/01/17 07:45:15;;;;;;;3.20;0.80;;;;;;;-142.75;100.00;76265.19;5040085;28;20032;-66
2023/01/17 07:47:40;;;;;;;;;;;;;;;-142.75;100.00;76267.16;5039855;28;20033;-66
2023/01/17 07:50:07;;;;;;;1.87;0.70;;;;;;;-142.75;100.00;76267.16;5039733;28;19920;-65
2023/01/17 07:52:32;;;;;;;0.90;0.50;;;;;;;-142.75;100.00;76255.34;5039981;28;20033;-65
2023/01/17 07:54:58;;;;;;;2.88;0.77;;;;;;;-142.75;100.00;76247.47;5022199;28;20067;-64
2023/01/17 07:57:23;;;;;;;2.83;0.68;;;;;;;-142.75;100.00;76231.72;5039204;28;20028;-66
2023/01/17 07:59:51;;;;;;;1.15;0.60;;;;;;;-142.75;100.00;76215.97;5039997;28;20021;-64
2023/01/17 08:02:19;;;;;;;2.67;0.93;;;;;;;-142.75;100.00;76194.34;5039530;28;20024;-66
2023/01/17 08:04:45;;;;;;;2.00;0.73;;;;;;;-142.75;100.00;76174.66;5022160;28;20382;-65
2023/01/17 08:07:12;;;;;;;3.45;0.60;;;;;;;-142.75;100.00;76143.16;5039065;28;20033;-65
2023/01/17 08:09:38;;;;;;;3.97;0.63;;;;;;;-142.75;100.00;76127.41;5039563;28;20021;-64
2023/01/17 08:12:04;;;;;;;4.72;0.90;;;;;;;-142.75;100.00;76135.28;5039765;28;20032;-66
2023/01/17 08:14:29;;;;;;;4.28;0.88;;;;;;;-142.75;100.00;76125.44;5021827;28;20147;-66
2023/01/17 08:17:06;;;;;;;4.93;1.50;;;;;;;-142.75;100.00;76099.84;5021233;28;20391;-65
2023/01/17 08:19:31;;;;;;;7.75;2.92;;;;;;;-142.75;100.00;76093.94;5039547;28;20021;-65
2023/01/17 08:21:56;;;;;;;4.78;2.55;;;;;;;-142.75;100.00;76093.94;5039519;28;20083;-65
2023/01/17 08:24:22;;;;;;;14.23;7.63;;;;;;;-142.75;100.00;76099.84;5039442;28;20498;-64
2023/01/17 08:26:47;;;;;;;12.07;6.03;;;;;;;-142.75;100.00;76101.81;5038849;28;20024;-65
2023/01/17 08:29:13;;;;;;;16.40;4.65;;;;;;;-142.75;100.00;76121.50;5039306;28;20017;-65
2023/01/17 08:31:39;;;;;;;7.27;3.80;;;;;;;-142.75;100.00;76129.38;5021465;28;20029;-65
2023/01/17 08:34:04;;;;;;;21.70;9.93;;;;;;;-142.75;100.00;76137.25;5039282;28;20036;-65
2023/01/17 08:36:30;;;;;;;8.82;5.15;;;;;;;-142.75;100.00;76127.41;5037010;28;20024;-65
2023/01/17 08:38:55;;;;;;;3.78;1.75;;;;;;;-142.75;100.00;76139.22;5019207;28;20025;-66
2023/01/17 08:41:22;;;;;;;5.95;2.13;;;;;;;-142.75;100.00;76133.31;5019474;28;20108;-62
2023/01/17 08:43:49;;;;;;;3.07;1.47;;;;;;;-142.75;100.00;76137.25;5019750;28;20033;-65
2023/01/17 08:46:14;;;;;;;2.63;1.40;;;;;;;-142.75;100.00;76129.38;5001163;28;20109;-65
2023/01/17 08:48:40;;;;;;;2.28;1.20;;;;;;;-142.75;100.00;76111.66;5018603;28;20818;-65
2023/01/17 08:51:06;;;;;;;3.50;1.65;;;;;;;-142.75;100.00;76101.81;5018726;28;20049;-65
2023/01/17 08:53:31;;;;;;;2.80;1.25;;;;;;;-142.75;100.00;76091.97;5001712;28;20609;-67
2023/01/17 08:55:58;;;;;;;5.07;0.98;;;;;;;-142.75;100.00;76109.69;5018983;28;20033;-64
2023/01/17 08:58:23;;;;;;;5.77;1.17;;;;;;;-142.75;100.00;76066.41;5018325;28;20029;-65
2023/01/17 09:00:49;;;;;;;7.47;1.55;;;;;;;-142.75;100.00;76052.63;5019183;28;20049;-67
2023/01/17 09:03:14;;;;;;;2.45;1.10;;;;;;;-142.75;100.00;76038.84;5019032;28;20017;-65
2023/01/17 09:05:40;;;;;;;4.43;1.13;;;;;;;-142.75;100.00;76029.00;5019180;28;20032;-64
2023/01/17 09:08:05;;;;;;;3.88;1.10;;;;;;;-142.75;100.00;76058.53;5018416;28;20057;-65
2023/01/17 09:10:30;;;;;;;3.25;1.20;;;;;;;-142.75;100.00;76029.00;5018672;28;20546;-64
2023/01/17 09:12:55;;;;;;;4.07;1.30;;;;;;;-142.75;100.00;76034.91;5018885;28;20025;-63
2023/01/17 09:15:21;;;;;;;3.85;1.30;;;;;;;-142.75;100.00;76082.13;5018656;28;20028;-62
2023/01/17 09:17:46;;;;;;;1.38;0.88;;;;;;;-142.75;100.00;76099.84;5000742;28;20022;-65
2023/01/17 09:20:12;;;;;;;2.70;1.13;;;;;;;-142.75;100.00;76093.94;5018678;28;20136;-66
2023/01/17 09:22:37;;;;;;;1.73;1.15;;;;;;;-142.75;100.00;76107.72;5019162;28;20021;-64
2023/01/17 09:25:05;;;;;;;5.85;1.35;;;;;;;-142.75;100.00;76111.66;5001456;28;20045;-64
2023/01/17 09:27:30;;;;;;;3.70;1.80;;;;;;;-142.75;100.00;76119.53;5018176;28;20109;-65
2023/01/17 09:29:55;;;;;;;2.72;1.50;;;;;;;-142.75;100.00;76137.25;5001055;28;20030;-63
2023/01/17 09:32:20;;;;;;;7.57;1.42;;;;;;;-142.75;100.00;76172.69;5018863;28;20383;-63
2023/01/17 09:34:46;;;;;;;2.22;1.00;;;;;;;-142.75;100.00;76223.84;5019290;28;20057;-65
2023/01/17 09:37:11;;;;;;;3.78;1.50;;;;;;;-142.75;100.00;76215.97;5018269;28;20024;-66
2023/01/17 09:39:36;;;;;;;2.65;0.95;;;;;;;-142.75;100.00;76208.09;5018936;28;20454;-65
2023/01/17 09:42:26;;;;;;;2.63;0.80;;;;;;;-142.75;100.00;76235.66;5001160;28;20030;-66
2023/01/17 09:44:52;;;;;;;4.10;1.03;;;;;;;-142.75;100.00;76204.16;5019497;28;20471;-65
2023/01/17 09:47:40;;;;;;;5.13;1.55;;;;;;;-142.75;100.00;76200.25;5021266;28;20051;-65
2023/01/17 09:50:35;;;;;;;4.27;1.20;;;;;;;-142.75;100.00;76186.47;5016515;28;20052;-66
2023/01/17 09:53:11;;;;;;;2.60;1.50;;;;;;;-142.75;100.00;76164.81;5018801;28;20585;-65
2023/01/17 09:55:42;;;;;;;2.58;1.08;;;;;;;-142.75;100.00;76170.72;5028136;28;20897;-62
2023/01/17 09:58:20;;;;;;;5.97;1.73;;;;;;;-142.75;100.00;76204.16;5001285;28;20550;-66
2023/01/17 10:01:03;;;;;;;3.13;1.50;;;;;;;-142.75;100.00;76182.53;5001045;28;20770;-64
2023/01/17 10:03:28;;;;;;;2.37;1.13;;;;;;;-142.75;100.00;76149.06;5019290;28;20025;-65
2023/01/17 10:06:00;;;;;;;1.63;0.90;;;;;;;-142.75;100.00;76145.13;5022389;28;20387;-65
2023/01/17 10:08:39;;;;;;;2.37;0.80;;;;;;;-142.75;100.00;76097.88;5021096;28;20434;-66
2023/01/17 10:11:17;;;;;;;3.27;0.77;;;;;;;-142.75;100.00;76070.34;5004024;28;20033;-66
2023/01/17 10:14:00;;;;;;;3.30;0.60;;;;;;;-142.75;100.00;76038.84;5022025;28;20099;-65
2023/01/17 10:16:35;;;;;;;4.80;0.97;;;;;;;-142.75;100.00;76003.41;5008359;28;20047;-65
2023/01/17 10:19:37;;;;;;;1.93;1.00;;;;;;;-142.75;100.00;75993.56;5041684;28;20057;-65
2023/01/17 10:22:33;;;;;;;4.40;1.03;;;;;;;-142.75;100.00;75960.13;5021641;28;20033;-66
2023/01/17 10:25:32;;;;;;;2.87;1.00;;;;;;;-142.75;100.00;75906.97;5021856;28;20522;-65
2023/01/17 10:28:02;;;;;;;6.30;1.43;;;;;;;-142.75;100.00;75851.88;5021000;28;20042;-63
2023/01/17 10:30:34;;;;;;;3.37;1.30;;;;;;;-142.75;100.00;75796.75;5003671;28;20036;-67
2023/01/17 10:33:11;;;;;;;2.20;0.93;;;;;;;-142.75;100.00;75700.31;5004112;28;20033;-66
2023/01/17 10:35:43;;;;;;;4.27;1.30;;;;;;;-142.75;100.00;75662.94;5021577;28;20094;-66
2023/01/17 10:38:12;;;;;;;2.47;1.03;;;;;;;-142.75;100.00;75609.78;5003283;28;20021;-67
2023/01/17 10:40:51;;;;;;;5.60;1.40;;;;;;;-142.75;100.00;75535.00;5021391;28;20701;-66
2023/01/17 10:43:24;;;;;;;6.00;1.17;;;;;;;-142.75;100.00;75578.31;5021246;28;20100;-66
2023/01/17 10:45:54;;;;;;;5.97;1.33;;;;;;;-142.75;100.00;75554.69;5021761;28;20495;-63
2023/01/17 10:48:32;;;;;;;7.63;1.35;;;;;;;-142.75;100.00;75517.28;5002815;28;20053;-66
2023/01/17 10:51:09;;;;;;;3.13;1.13;;;;;;;-142.75;100.00;75538.94;5003551;28;20030;-65
2023/01/17 10:53:59;;;;;;;8.73;1.23;;;;;;;-142.75;100.00;75542.88;5020798;28;20037;-65
2023/01/17 10:56:28;;;;;;;3.50;1.13;;;;;;;-142.75;100.00;75631.44;5021276;28;20511;-67
2023/01/17 10:59:10;;;;;;;2.22;1.00;;;;;;;-142.75;100.00;75649.16;5020960;28;20032;-65
2023/01/17 11:01:35;;;;;;;2.40;0.82;;;;;;;-142.75;100.00;75633.41;5002687;28;20025;-63
2023/01/17 11:04:01;;;;;;;2.05;1.05;;;;;;;-142.75;100.00;75692.44;5021363;28;20031;-67
2023/01/17 11:06:26;;;;;;;4.43;0.85;;;;;;;-142.75;100.00;75633.41;5035382;28;20442;-66
2023/01/17 11:08:58;;;;;;;5.00;0.75;;;;;;;-142.75;100.00;75599.94;5020859;28;20175;-66
2023/01/17 11:11:32;;;;;;;2.10;1.30;;;;;;;-142.75;100.00;75592.09;5020738;28;20025;-67
2023/01/17 11:13:59;;;;;;;2.13;0.85;;;;;;;-142.75;100.00;75552.72;5001926;28;20033;-65
2023/01/17 11:16:30;;;;;;;3.25;1.25;;;;;;;-142.75;100.00;75511.41;5002853;28;20025;-66
2023/01/17 11:19:16;;;;;;;7.45;1.10;;;;;;;-142.75;100.00;75474.00;5020437;28;20665;-65
2023/01/17 11:21:54;;;;;;;6.10;0.82;;;;;;;-142.75;100.00;75456.28;5003011;28;20132;-64
2023/01/17 11:24:35;;;;;;;4.30;1.00;;;;;;;-142.75;100.00;75424.81;5002782;28;20164;-65
2023/01/17 11:27:03;;;;;;;3.72;1.00;;;;;;;-142.75;100.00;75468.09;5019830;28;20048;-67
2023/01/17 11:29:39;;;;;;;5.22;1.23;;;;;;;-142.75;100.00;75446.44;5020464;28;20025;-65
2023/01/17 11:32:28;;;;;;;1.60;0.60;;;;;;;-142.75;98.64;75444.47;5020397;28;20025;-63
2023/01/17 11:35:12;;;;;;;3.60;0.90;;;;;;;-142.75;97.44;75460.22;5002945;28;20033;-67
2023/01/17 11:37:37;;;;;;;2.72;0.90;;;;;;;-142.75;94.86;75460.22;5019581;28;20116;-65
2023/01/17 11:40:46;;;;;;;1.65;0.65;;;;;;;-142.75;94.25;75413.00;5020308;28;20025;-66
2023/01/17 11:43:17;;;;;;;2.10;0.65;;;;;;;-142.75;92.35;75452.34;5014948;28;20041;-64
2023/01/17 11:45:43;;;;;;;2.58;0.70;;;;;;;-142.75;90.16;75452.34;5002528;28;20033;-65
2023/01/17 11:48:11;;;;;;;;;;;;;;;-142.75;88.27;75468.09;5033876;28;20430;-65
2023/01/17 11:51:19;;;;;;;3.50;1.23;;;;;;;-142.75;88.30;75458.25;5039849;28;19946;-65
2023/01/17 11:53:47;;;;;;;;;;;;;;;-142.75;86.89;75434.66;4976599;28;20709;-66
2023/01/17 11:56:28;;;;;;;5.63;0.80;;;;;;;-142.75;89.57;75458.25;5039813;28;20721;-66
2023/01/17 11:59:23;;;;;;;2.65;0.70;;;;;;;-142.75;89.23;75503.53;5019576;28;20029;-65
2023/01/17 12:02:19;;;;;;;4.82;1.58;;;;;;;-142.75;89.87;75501.56;5020734;28;20581;-66
2023/01/17 12:05:26;;;;;;;1.73;0.77;;;;;;;-142.75;90.19;75540.91;5002010;28;20088;-66
2023/01/17 12:08:41;;;;;;;11.27;0.80;;;;;;;-142.75;89.83;75468.09;5039495;28;20025;-65
2023/01/17 12:11:21;;;;;;;3.70;0.70;;;;;;;-142.75;85.56;75403.16;4958189;28;20309;-65
2023/01/17 12:13:59;;;;;;;2.75;0.73;;;;;;;-142.75;84.03;75393.31;4958823;28;20030;-65
2023/01/17 12:16:49;;;;;;;1.58;0.60;;;;;;;-142.75;84.40;75373.63;5016342;28;20116;-65
2023/01/17 12:19:42;;;;;;;1.27;0.45;;;;;;;-142.75;81.72;75377.56;5018557;28;20017;-66
2023/01/17 12:22:13;;;;;;;1.85;0.65;;;;;;;-142.75;77.50;75314.59;5001807;28;20098;-65
2023/01/17 12:25:14;;;;;;;1.33;0.32;;;;;;;-142.75;75.52;75336.25;5001973;28;20033;-65
2023/01/17 12:28:13;;;;;;;1.55;0.30;;;;;;;-142.75;74.01;75373.63;4985746;28;20034;-67
2023/01/17 12:30:57;;;;;;;2.50;0.47;;;;;;;-142.75;73.95;75353.97;5019409;28;20036;-67
2023/01/17 12:33:35;;;;;;;1.25;0.50;;;;;;;-142.75;73.69;75361.84;5019398;28;20028;-66
2023/01/17 12:36:08;;;;;;;1.20;0.30;;;;;;;-142.75;74.42;75365.75;5019422;28;20030;-66
2023/01/17 12:38:38;;;;;;;3.38;0.70;;;;;;;-142.75;75.87;75460.22;5018798;28;20025;-65
2023/01/17 12:41:23;;;;;;;1.48;0.50;;;;;;;-142.75;76.74;75503.53;5001626;28;20032;-66
2023/01/17 12:43:53;;;;;;;1.50;0.57;;;;;;;-142.75;81.05;75535.00;5028109;28;20025;-66
2023/01/17 12:46:25;;;;;;;4.43;0.60;;;;;;;-142.75;81.54;75597.97;5018351;28;20474;-65